NCAR-RAP Real-Time Weather Data

Output produced by METARs form (14 October 2019  23:38 UTC)
found at http://weather.rap.ucar.edu/surface/
 
KLBF 142253Z AUTO 33010KT 10SM CLR 25/M06 A2976 RMK AO2 SLP071 T02501056
KLBF 142153Z AUTO 27008KT 10SM CLR 26/M06 A2974 RMK AO2 SLP063 T02611056